Time;durP1;ratioP1;P1;durP2;ratioP2;P2;SDS_P1;SDS_P2;PMS_P1;PMS_P2;Temp;Humidity;BMP_temperature;BMP_pressure;BME280_temperature;BME280_humidity;BME280_pressure;Samples;Min_cycle;Max_cycle;Signal;HPM_P1;HPM_P2
2022/05/18 00:01:33;;;;;;;;;;;18.20;90.10;;;;;;5015375;28;20323;-84
2022/05/18 00:03:59;;;;;;;;;;;18.20;90.10;;;;;;5015134;28;19912;-83
2022/05/18 00:06:24;;;;;;;;;;;18.20;90.20;;;;;;5014948;28;20393;-84
2022/05/18 00:08:49;;;;;;;;;;;18.00;90.20;;;;;;5015106;28;20382;-83
2022/05/18 00:11:16;;;;;;;;;;;18.10;90.30;;;;;;5014629;28;19954;-84
2022/05/18 00:13:43;;;;;;;;;;;18.10;90.30;;;;;;5015335;28;19909;-83
2022/05/18 00:16:08;;;;;;;;;;;18.10;90.30;;;;;;5013954;28;19947;-84
2022/05/18 00:18:34;;;;;;;;;;;18.10;90.30;;;;;;5014979;28;19909;-85
2022/05/18 00:21:00;;;;;;;;;;;18.10;90.30;;;;;;5014234;28;19952;-85
2022/05/18 00:23:26;;;;;;;;;;;18.10;90.30;;;;;;5014436;28;19920;-84
2022/05/18 00:25:51;;;;;;;;;;;18.10;90.60;;;;;;5013923;28;19923;-86
2022/05/18 00:28:17;;;;;;;;;;;18.10;90.30;;;;;;5014143;28;19944;-84
2022/05/18 00:30:43;;;;;;;;;;;18.10;90.30;;;;;;5031722;28;19948;-85
2022/05/18 00:33:09;;;;;;;;;;;18.10;90.40;;;;;;5013691;28;19905;-85
2022/05/18 00:35:35;;;;;;;;;;;18.10;90.40;;;;;;5013357;28;19909;-83
2022/05/18 00:38:01;;;;;;;;;;;18.10;90.30;;;;;;5014086;28;20332;-82
2022/05/18 00:40:27;;;;;;;;;;;18.10;90.30;;;;;;5022684;28;19909;-84
2022/05/18 00:42:52;;;;;;;;;;;18.10;90.20;;;;;;5011174;28;19963;-84
2022/05/18 00:45:18;;;;;;;;;;;18.20;90.20;;;;;;5013049;28;19913;-83
2022/05/18 00:47:43;;;;;;;;;;;18.20;90.10;;;;;;5030946;28;19913;-83
2022/05/18 00:50:18;;;;;;;;;;;18.20;90.00;;;;;;5014181;28;19909;-84
2022/05/18 00:52:49;;;;;;;;;;;18.20;90.00;;;;;;5031786;28;19905;-85
2022/05/18 00:55:16;;;;;;;;;;;18.20;90.00;;;;;;5013492;28;19909;-83
2022/05/18 00:57:45;;;;;;;;;;;18.20;90.00;;;;;;5013902;28;19913;-83
2022/05/18 01:00:13;;;;;;;;;;;18.20;90.10;;;;;;5013373;28;20014;-84
2022/05/18 01:02:39;;;;;;;;;;;18.20;90.10;;;;;;5006274;28;19954;-84
2022/05/18 01:05:07;;;;;;;;;;;18.10;90.10;;;;;;5013494;28;19917;-83
2022/05/18 01:07:40;;;;;;;;;;;18.10;90.20;;;;;;5013750;28;19913;-83
2022/05/18 01:10:06;;;;;;;;;;;18.10;90.20;;;;;;5014096;28;19905;-86
2022/05/18 01:12:32;;;;;;;;;;;18.10;90.30;;;;;;5016429;28;19908;-84
2022/05/18 01:15:00;;;;;;;;;;;18.10;90.30;;;;;;5017197;28;20616;-85
2022/05/18 01:17:28;;;;;;;;;;;18.10;90.30;;;;;;5021254;28;19917;-85
2022/05/18 01:19:54;;;;;;;;;;;18.00;90.30;;;;;;5038440;28;20313;-85
2022/05/18 01:22:26;;;;;;;;;;;18.00;90.20;;;;;;5020318;28;19908;-84
2022/05/18 01:25:03;;;;;;;;;;;18.10;90.30;;;;;;5020595;28;19955;-84
2022/05/18 01:27:29;;;;;;;;;;;18.10;90.30;;;;;;5019122;28;19913;-84
2022/05/18 01:29:55;;;;;;;;;;;18.10;90.30;;;;;;5020183;28;20027;-87
2022/05/18 01:32:21;;;;;;;;;;;18.00;90.30;;;;;;5037786;28;20329;-84
2022/05/18 01:34:46;;;;;;;;;;;18.00;90.30;;;;;;5019728;28;19913;-87
2022/05/18 01:37:13;;;;;;;;;;;18.10;90.30;;;;;;5018626;28;19920;-85
2022/05/18 01:39:42;;;;;;;;;;;18.10;90.30;;;;;;5019095;28;20293;-87
2022/05/18 01:42:11;;;;;;;;;;;18.10;90.20;;;;;;5018680;28;19908;-86
2022/05/18 01:44:38;;;;;;;;;;;18.20;90.20;;;;;;5018553;28;20376;-84
2022/05/18 01:47:03;;;;;;;;;;;18.20;90.10;;;;;;5035924;28;20437;-83
2022/05/18 01:49:29;;;;;;;;;;;18.10;90.00;;;;;;5035874;28;19908;-84
2022/05/18 01:51:55;;;;;;;;;;;18.10;90.00;;;;;;5036409;28;20370;-83
2022/05/18 01:54:21;;;;;;;;;;;18.20;90.00;;;;;;5018317;28;19919;-84
2022/05/18 01:56:47;;;;;;;;;;;18.10;90.00;;;;;;5017750;28;20000;-85
2022/05/18 01:59:12;;;;;;;;;;;18.10;90.00;;;;;;5017183;28;19909;-84
2022/05/18 02:01:38;;;;;;;;;;;18.10;90.00;;;;;;5035553;28;19909;-83
2022/05/18 02:04:04;;;;;;;;;;;18.10;90.10;;;;;;5035173;28;19975;-84
2022/05/18 02:06:30;;;;;;;;;;;18.10;90.20;;;;;;5016728;28;20303;-85
2022/05/18 02:08:57;;;;;;;;;;;18.00;90.20;;;;;;5035510;28;19905;-83
2022/05/18 02:11:22;;;;;;;;;;;18.10;90.20;;;;;;5016635;28;20386;-84
2022/05/18 02:13:47;;;;;;;;;;;18.00;90.30;;;;;;5017064;28;20009;-83
2022/05/18 02:16:13;;;;;;;;;;;18.00;90.30;;;;;;5016229;28;19959;-83
2022/05/18 02:18:39;;;;;;;;;;;18.00;90.20;;;;;;5016848;28;20384;-84
2022/05/18 02:21:05;;;;;;;;;;;18.00;90.20;;;;;;5016517;28;20014;-84
2022/05/18 02:23:31;;;;;;;;;;;18.00;90.20;;;;;;5034527;28;19916;-85
2022/05/18 02:25:58;;;;;;;;;;;18.00;90.20;;;;;;5033882;28;19917;-84
2022/05/18 02:28:24;;;;;;;;;;;18.00;90.20;;;;;;5016594;28;19909;-83
2022/05/18 02:30:50;;;;;;;;;;;18.00;90.20;;;;;;5016439;28;19909;-86
2022/05/18 02:33:15;;;;;;;;;;;18.00;90.30;;;;;;5016222;28;20501;-84
2022/05/18 02:35:41;;;;;;;;;;;18.00;90.30;;;;;;5033367;28;19909;-85
2022/05/18 02:38:07;;;;;;;;;;;18.00;90.20;;;;;;5020105;28;19936;-84
2022/05/18 02:40:33;;;;;;;;;;;18.10;90.20;;;;;;5019879;28;19916;-85
2022/05/18 02:42:58;;;;;;;;;;;18.10;90.10;;;;;;5019312;28;19996;-84
2022/05/18 02:45:23;;;;;;;;;;;18.10;90.00;;;;;;5018550;28;20325;-85
2022/05/18 02:47:50;;;;;;;;;;;18.10;90.00;;;;;;5019028;28;20679;-84
2022/05/18 02:50:16;;;;;;;;;;;18.20;90.00;;;;;;5016458;28;19913;-84
2022/05/18 02:52:41;;;;;;;;;;;18.10;90.00;;;;;;5016980;28;20476;-84
2022/05/18 02:57:51;;;;;;;;;;;18.10;90.00;;;;;;5035905;28;19967;-84
2022/05/18 03:00:17;;;;;;;;;;;18.10;90.10;;;;;;5035475;28;19912;-86
2022/05/18 03:02:42;;;;;;;;;;;18.10;90.10;;;;;;5035344;28;19909;-87
2022/05/18 03:05:08;;;;;;;;;;;18.10;90.10;;;;;;5034666;28;19913;-83
2022/05/18 03:07:33;;;;;;;;;;;18.00;90.20;;;;;;5016802;28;20054;-84
2022/05/18 03:09:59;;;;;;;;;;;18.00;90.20;;;;;;5017105;28;19905;-83
2022/05/18 03:12:24;;;;;;;;;;;18.00;90.20;;;;;;5020100;28;20033;-86
2022/05/18 03:14:50;;;;;;;;;;;18.00;90.20;;;;;;5017694;28;19924;-85
2022/05/18 03:17:15;;;;;;;;;;;18.00;90.20;;;;;;5017964;28;19962;-84
2022/05/18 03:19:41;;;;;;;;;;;18.00;90.20;;;;;;5018090;28;20108;-83
2022/05/18 03:24:51;;;;;;;;;;;18.00;90.20;;;;;;5035509;28;19916;-86
2022/05/18 03:27:16;;;;;;;;;;;18.00;90.20;;;;;;5017899;28;19905;-86
2022/05/18 03:29:41;;;;;;;;;;;18.00;90.20;;;;;;5017056;28;20380;-84
2022/05/18 03:32:07;;;;;;;;;;;18.00;90.30;;;;;;5017731;28;20429;-84
2022/05/18 03:34:36;;;;;;;;;;;18.00;90.30;;;;;;5034572;28;20401;-84
2022/05/18 03:37:02;;;;;;;;;;;18.00;90.20;;;;;;5017875;28;19912;-85
2022/05/18 03:39:27;;;;;;;;;;;18.00;90.10;;;;;;5017119;28;19909;-86
2022/05/18 03:41:53;;;;;;;;;;;18.10;90.10;;;;;;5017329;28;19913;-84
2022/05/18 03:44:19;;;;;;;;;;;18.10;90.00;;;;;;5017019;28;19999;-84
2022/05/18 03:46:44;;;;;;;;;;;18.10;89.90;;;;;;5016638;28;20422;-85
2022/05/18 03:49:10;;;;;;;;;;;18.10;89.90;;;;;;5017407;28;19945;-85
2022/05/18 03:51:37;;;;;;;;;;;18.10;89.90;;;;;;5018774;28;19913;-84
2022/05/18 03:54:03;;;;;;;;;;;18.00;89.90;;;;;;5018774;28;19909;-82
2022/05/18 03:56:29;;;;;;;;;;;18.10;90.00;;;;;;5015623;28;19932;-85
2022/05/18 03:58:55;;;;;;;;;;;18.10;90.00;;;;;;5019530;28;19912;-82
2022/05/18 04:01:21;;;;;;;;;;;18.00;90.10;;;;;;5024140;28;19905;-83
2022/05/18 04:03:47;;;;;;;;;;;18.20;90.20;;;;;;5024966;28;19944;-82
2022/05/18 04:06:13;;;;;;;;;;;18.00;90.10;;;;;;5014731;28;19929;-83
2022/05/18 04:08:38;;;;;;;;;;;18.00;90.30;;;;;;5039304;28;19911;-83
2022/05/18 04:11:05;;;;;;;;;;;18.00;90.20;;;;;;5045990;28;19929;-82
2022/05/18 04:13:32;;;;;;;;;;;18.00;90.20;;;;;;5024180;28;19964;-83
2022/05/18 04:15:57;;;;;;;;;;;18.00;90.10;;;;;;5039883;28;19970;-83
2022/05/18 04:18:24;;;;;;;;;;;18.00;90.20;;;;;;5039535;28;20389;-84
2022/05/18 04:20:50;;;;;;;;;;;18.00;90.20;;;;;;5025307;28;19905;-85
2022/05/18 04:23:16;;;;;;;;;;;17.90;90.10;;;;;;5037124;28;19905;-86
2022/05/18 04:25:42;;;;;;;;;;;18.00;90.20;;;;;;5020786;28;20401;-84
2022/05/18 04:28:08;;;;;;;;;;;18.00;90.20;;;;;;5024913;28;20000;-84
2022/05/18 04:30:34;;;;;;;;;;;18.00;90.20;;;;;;5043843;28;19959;-86
2022/05/18 04:33:01;;;;;;;;;;;18.00;90.20;;;;;;5043640;28;19915;-85
2022/05/18 04:35:28;;;;;;;;;;;18.00;90.10;;;;;;5024789;28;19917;-87
2022/05/18 04:37:54;;;;;;;;;;;18.00;90.10;;;;;;5022178;28;19931;-87
2022/05/18 04:40:19;;;;;;;;;;;18.10;90.00;;;;;;5022726;28;19969;-85
2022/05/18 04:42:45;;;;;;;;;;;18.10;90.00;;;;;;5040671;28;19909;-88
2022/05/18 04:45:11;;;;;;;;;;;18.10;89.80;;;;;;5025884;28;19905;-86
2022/05/18 04:47:37;;;;;;;;;;;18.10;89.80;;;;;;5020771;28;19905;-84
2022/05/18 04:50:03;;;;;;;;;;;18.10;89.80;;;;;;5019050;28;19916;-85
2022/05/18 04:52:29;;;;;;;;;;;18.10;89.80;;;;;;5020249;28;19905;-83
2022/05/18 04:54:54;;;;;;;;;;;18.10;89.90;;;;;;5019839;28;19905;-84
2022/05/18 04:57:20;;;;;;;;;;;18.00;90.00;;;;;;5038108;28;20003;-86
2022/05/18 04:59:47;;;;;;;;;;;18.10;90.00;;;;;;5019120;28;19912;-85
2022/05/18 05:02:13;;;;;;;;;;;18.00;90.00;;;;;;5019372;28;19905;-86
2022/05/18 05:04:38;;;;;;;;;;;18.00;90.10;;;;;;5019618;28;19912;-85
2022/05/18 05:07:04;;;;;;;;;;;18.00;90.10;;;;;;5019576;28;19909;-86
2022/05/18 05:09:30;;;;;;;;;;;18.00;90.10;;;;;;5019422;28;20306;-86
2022/05/18 05:11:55;;;;;;;;;;;18.00;90.10;;;;;;5022264;28;19936;-85
2022/05/18 05:14:21;;;;;;;;;;;18.00;90.10;;;;;;5018356;28;19959;-83
2022/05/18 05:16:47;;;;;;;;;;;18.00;90.20;;;;;;5018640;28;20378;-86
2022/05/18 05:19:14;;;;;;;;;;;18.00;90.20;;;;;;5018735;28;20285;-86
2022/05/18 05:21:42;;;;;;;;;;;18.00;90.10;;;;;;5026276;28;19916;-85
2022/05/18 05:24:14;;;;;;;;;;;18.00;90.10;;;;;;5018659;28;19970;-87
2022/05/18 05:26:40;;;;;;;;;;;18.00;90.10;;;;;;5035811;28;19954;-86
2022/05/18 05:29:07;;;;;;;;;;;18.00;90.10;;;;;;5018400;28;19920;-88
2022/05/18 05:31:32;;;;;;;;;;;18.00;90.10;;;;;;5017667;28;19915;-87
2022/05/18 05:33:57;;;;;;;;;;;18.00;90.00;;;;;;5017647;28;19905;-86
2022/05/18 05:36:23;;;;;;;;;;;18.00;90.00;;;;;;5035647;28;19972;-87
2022/05/18 05:38:49;;;;;;;;;;;18.10;89.90;;;;;;5018560;28;19912;-87
2022/05/18 05:41:15;;;;;;;;;;;18.20;89.70;;;;;;5018241;28;20281;-85
2022/05/18 05:43:41;;;;;;;;;;;18.20;89.60;;;;;;5035630;28;19912;-87
2022/05/18 05:46:09;;;;;;;;;;;18.10;89.50;;;;;;5037371;28;20058;-88
2022/05/18 05:48:35;;;;;;;;;;;18.10;89.40;;;;;;5040135;28;19905;-88
2022/05/18 05:51:01;;;;;;;;;;;18.20;89.40;;;;;;5022440;28;19912;-87
2022/05/18 05:53:27;;;;;;;;;;;18.20;89.50;;;;;;5021715;28;19905;-87
2022/05/18 05:55:53;;;;;;;;;;;18.10;89.40;;;;;;5021391;28;19905;-88
2022/05/18 05:58:19;;;;;;;;;;;18.10;89.50;;;;;;5023239;28;19905;-88
2022/05/18 06:00:45;;;;;;;;;;;18.10;89.50;;;;;;5025431;28;19944;-87
2022/05/18 06:03:11;;;;;;;;;;;18.10;89.60;;;;;;5024791;28;19912;-88
2022/05/18 06:05:37;;;;;;;;;;;18.10;89.60;;;;;;5041412;28;20264;-88
2022/05/18 06:08:02;;;;;;;;;;;18.20;89.80;;;;;;5024508;28;19912;-87
2022/05/18 06:10:29;;;;;;;;;;;18.10;89.70;;;;;;5042108;28;19912;-87
2022/05/18 06:12:54;;;;;;;;;;;18.10;89.80;;;;;;5024067;28;20386;-87
2022/05/18 06:15:19;;;;;;;;;;;18.10;89.90;;;;;;5023349;28;19905;-87
2022/05/18 06:17:45;;;;;;;;;;;18.10;89.70;;;;;;5023298;28;19932;-87
2022/05/18 06:20:11;;;;;;;;;;;18.10;89.70;;;;;;5023605;28;20362;-87
2022/05/18 06:22:36;;;;;;;;;;;18.10;89.60;;;;;;5022332;28;19905;-87
2022/05/18 06:25:02;;;;;;;;;;;18.10;89.70;;;;;;5022414;28;20493;-87
2022/05/18 06:27:28;;;;;;;;;;;18.10;89.70;;;;;;5022510;28;20000;-88
2022/05/18 06:29:53;;;;;;;;;;;18.20;89.70;;;;;;5021637;28;19948;-87
2022/05/18 06:32:19;;;;;;;;;;;18.20;89.50;;;;;;5021973;28;19905;-87
2022/05/18 06:34:45;;;;;;;;;;;18.20;89.20;;;;;;5021074;28;19905;-87
2022/05/18 06:37:13;;;;;;;;;;;18.30;89.10;;;;;;5021278;28;19913;-87
2022/05/18 06:39:39;;;;;;;;;;;18.30;88.80;;;;;;5021257;28;19905;-87
2022/05/18 06:42:04;;;;;;;;;;;18.30;88.60;;;;;;5039373;28;19951;-87
2022/05/18 06:44:30;;;;;;;;;;;18.40;88.50;;;;;;5021105;28;19905;-87
2022/05/18 06:46:59;;;;;;;;;;;18.40;88.40;;;;;;5038852;28;20275;-87
2022/05/18 06:49:26;;;;;;;;;;;18.40;88.20;;;;;;5020499;28;19911;-87
2022/05/18 06:51:52;;;;;;;;;;;18.40;88.20;;;;;;5039397;28;20327;-87
2022/05/18 06:54:17;;;;;;;;;;;18.30;88.20;;;;;;5021004;28;19956;-87
2022/05/18 06:56:43;;;;;;;;;;;18.30;88.30;;;;;;5020236;28;19905;-87
2022/05/18 06:59:09;;;;;;;;;;;18.30;88.40;;;;;;5020523;28;19905;-87
2022/05/18 07:01:35;;;;;;;;;;;18.30;88.40;;;;;;5019887;28;19924;-87
2022/05/18 07:04:01;;;;;;;;;;;18.30;88.50;;;;;;5020282;28;20434;-88
2022/05/18 07:06:28;;;;;;;;;;;18.40;88.70;;;;;;5020032;28;19909;-87
2022/05/18 07:08:55;;;;;;;;;;;18.40;88.60;;;;;;5019625;28;19905;-87
2022/05/18 07:11:22;;;;;;;;;;;18.40;88.60;;;;;;5020015;28;20309;-87
2022/05/18 07:13:51;;;;;;;;;;;18.40;88.60;;;;;;5038459;28;19967;-87
2022/05/18 07:16:21;;;;;;;;;;;18.40;89.00;;;;;;5007984;28;19913;-87
2022/05/18 07:18:47;;;;;;;;;;;18.40;88.50;;;;;;5000078;28;19972;-87
2022/05/18 07:21:13;;;;;;;;;;;18.40;88.40;;;;;;4999712;28;20392;-87
2022/05/18 07:23:39;;;;;;;;;;;18.40;88.40;;;;;;5000003;28;19948;-87
2022/05/18 07:26:04;;;;;;;;;;;18.40;88.40;;;;;;5017220;28;19932;-88
2022/05/18 07:28:30;;;;;;;;;;;18.40;88.30;;;;;;4999576;28;19905;-87
2022/05/18 07:30:55;;;;;;;;;;;18.50;88.20;;;;;;4999407;28;19906;-88
2022/05/18 07:33:21;;;;;;;;;;;18.50;88.00;;;;;;4999016;28;19914;-87
2022/05/18 07:35:47;;;;;;;;;;;18.60;87.70;;;;;;4999084;28;19952;-87
2022/05/18 07:38:13;;;;;;;;;;;18.60;87.50;;;;;;4999683;28;19913;-87
2022/05/18 07:40:38;;;;;;;;;;;18.70;87.30;;;;;;5016731;28;19955;-87
2022/05/18 07:43:04;;;;;;;;;;;18.70;87.10;;;;;;5003243;28;19913;-87
2022/05/18 07:45:29;;;;;;;;;;;18.70;87.00;;;;;;5004404;28;19909;-87
2022/05/18 07:47:55;;;;;;;;;;;18.70;87.00;;;;;;5004790;28;19996;-87
2022/05/18 07:50:21;;;;;;;;;;;18.70;87.00;;;;;;5004379;28;19905;-88
2022/05/18 07:52:47;;;;;;;;;;;18.70;87.10;;;;;;5004499;28;19905;-88
2022/05/18 07:55:12;;;;;;;;;;;18.70;87.20;;;;;;5004044;28;20006;-88
2022/05/18 07:57:38;;;;;;;;;;;18.60;87.20;;;;;;5003771;28;20319;-88
2022/05/18 08:00:04;;;;;;;;;;;18.60;87.30;;;;;;5003290;28;19924;-88
2022/05/18 08:02:32;;;;;;;;;;;18.60;87.40;;;;;;5003211;28;19906;-88
2022/05/18 08:04:58;;;;;;;;;;;18.60;87.30;;;;;;5002502;28;19929;-88
2022/05/18 08:07:24;;;;;;;;;;;18.60;87.40;;;;;;5002718;28;19906;-87
2022/05/18 08:15:18;;;;;;;;;;;18.70;87.40;;;;;;5019285;28;19912;-88
2022/05/18 08:17:44;;;;;;;;;;;18.70;87.30;;;;;;5019320;28;19905;-87
2022/05/18 08:20:13;;;;;;;;;;;18.70;87.30;;;;;;5018680;28;19909;-88
2022/05/18 08:22:38;;;;;;;;;;;18.70;87.30;;;;;;5000730;28;19905;-88
2022/05/18 08:25:04;;;;;;;;;;;18.70;87.20;;;;;;5000135;28;20362;-87
2022/05/18 08:27:30;;;;;;;;;;;18.80;87.10;;;;;;4999971;28;19906;-87
2022/05/18 08:29:59;;;;;;;;;;;18.80;87.00;;;;;;5000178;28;19913;-87
2022/05/18 08:32:24;;;;;;;;;;;18.90;86.80;;;;;;5000108;28;19906;-87
2022/05/18 08:34:50;;;;;;;;;;;18.90;86.50;;;;;;5018070;28;19905;-87
2022/05/18 08:37:15;;;;;;;;;;;19.00;86.40;;;;;;4999815;28;19906;-88
2022/05/18 08:39:41;;;;;;;;;;;19.00;86.20;;;;;;5017896;28;19906;-87
2022/05/18 08:42:08;;;;;;;;;;;19.00;86.00;;;;;;4999034;28;19916;-88
2022/05/18 08:44:36;;;;;;;;;;;19.00;85.90;;;;;;4999178;28;19948;-87
2022/05/18 08:47:05;;;;;;;;;;;19.00;85.80;;;;;;4998784;28;19910;-87
2022/05/18 08:49:30;;;;;;;;;;;19.00;85.90;;;;;;5015564;28;20016;-88
2022/05/18 08:52:01;;;;;;;;;;;19.00;86.20;;;;;;5016775;28;19917;-87
2022/05/18 08:54:29;;;;;;;;;;;19.00;86.30;;;;;;4998983;28;19906;-87
2022/05/18 08:56:58;;;;;;;;;;;19.00;86.30;;;;;;5014340;28;19941;-87
2022/05/18 08:59:29;;;;;;;;;;;19.00;86.40;;;;;;5016931;28;20370;-88
2022/05/18 09:01:58;;;;;;;;;;;19.00;86.30;;;;;;4998351;28;20375;-86
2022/05/18 09:04:46;;;;;;;;;;;19.00;86.30;;;;;;5001447;28;19909;-87
2022/05/18 09:07:14;;;;;;;;;;;19.00;86.40;;;;;;5020859;28;19940;-87
2022/05/18 09:12:26;;;;;;;;;;;19.00;86.40;;;;;;5037063;28;19951;-87
2022/05/18 09:14:52;;;;;;;;;;;19.00;86.40;;;;;;5030262;28;20375;-87
2022/05/18 09:17:44;;;;;;;;;;;19.00;86.30;;;;;;5038297;28;20050;-88
2022/05/18 09:20:13;;;;;;;;;;;19.00;86.30;;;;;;5025195;28;20358;-88
2022/05/18 09:22:38;;;;;;;;;;;19.10;86.30;;;;;;5031657;28;20051;-88
2022/05/18 09:25:17;;;;;;;;;;;19.10;86.20;;;;;;5026900;28;19948;-89
2022/05/18 09:27:55;;;;;;;;;;;19.10;86.20;;;;;;5024228;28;19920;-87
2022/05/18 09:30:28;;;;;;;;;;;19.20;86.00;;;;;;5027340;28;19909;-85
2022/05/18 09:33:19;;;;;;;;;;;19.20;85.90;;;;;;5032031;28;19927;-86
2022/05/18 09:36:06;;;;;;;;;;;19.20;85.60;;;;;;4995009;28;19909;-86
2022/05/18 09:38:38;;;;;;;;;;;19.30;85.40;;;;;;5037397;28;19905;-86
2022/05/18 09:41:06;;;;;;;;;;;19.30;85.20;;;;;;5033821;28;19913;-87
2022/05/18 09:43:34;;;;;;;;;;;19.30;85.10;;;;;;5024009;28;19999;-86
2022/05/18 09:46:00;;;;;;;;;;;19.30;85.00;;;;;;5020239;28;19919;-87
2022/05/18 09:48:37;;;;;;;;;;;19.30;85.30;;;;;;5020553;28;19905;-86
2022/05/18 09:51:03;;;;;;;;;;;19.30;85.40;;;;;;5038780;28;19909;-87
2022/05/18 09:53:28;;;;;;;;;;;19.20;85.50;;;;;;5020470;28;19905;-86
2022/05/18 09:55:54;;;;;;;;;;;19.30;85.70;;;;;;5020491;28;20259;-86
2022/05/18 09:58:32;;;;;;;;;;;19.20;85.60;;;;;;5020685;28;20275;-86
2022/05/18 10:09:22;;;;;;;;;;;19.20;85.70;;;;;;5037936;28;19919;-86
2022/05/18 10:11:48;;;;;;;;;;;19.20;85.70;;;;;;5028338;28;19913;-86
2022/05/18 10:14:32;;;;;;;;;;;19.30;85.80;;;;;;5031266;28;19959;-87
2022/05/18 10:17:07;;;;;;;;;;;19.20;85.80;;;;;;5037087;28;19917;-86
2022/05/18 10:19:43;;;;;;;;;;;19.30;85.80;;;;;;5023036;28;19999;-87
2022/05/18 10:22:10;;;;;;;;;;;19.30;85.80;;;;;;5021716;28;20358;-86
2022/05/18 10:24:45;;;;;;;;;;;19.30;85.80;;;;;;5036628;28;19955;-86
2022/05/18 10:27:11;;;;;;;;;;;19.30;85.80;;;;;;5024726;28;20297;-87
2022/05/18 10:29:36;;;;;;;;;;;19.30;85.70;;;;;;5025284;28;19955;-87
2022/05/18 10:32:04;;;;;;;;;;;19.40;85.60;;;;;;5018607;28;19909;-87
2022/05/18 10:34:30;;;;;;;;;;;19.40;85.40;;;;;;5031140;28;19912;-87
2022/05/18 10:36:58;;;;;;;;;;;19.40;85.20;;;;;;5024902;28;20409;-86
2022/05/18 10:39:28;;;;;;;;;;;19.40;85.10;;;;;;5019194;28;19905;-87
2022/05/18 10:41:53;;;;;;;;;;;19.40;84.90;;;;;;5011517;28;19905;-86
2022/05/18 10:44:20;;;;;;;;;;;19.40;84.90;;;;;;5017442;28;19927;-86
2022/05/18 10:46:47;;;;;;;;;;;19.40;85.30;;;;;;5033768;28;20413;-86
2022/05/18 10:49:26;;;;;;;;;;;19.30;85.40;;;;;;5035028;28;20626;-86
2022/05/18 10:51:52;;;;;;;;;;;19.30;85.50;;;;;;5024130;28;19909;-86
2022/05/18 10:54:21;;;;;;;;;;;19.30;85.70;;;;;;5025297;28;20366;-86
2022/05/18 10:56:47;;;;;;;;;;;19.30;85.80;;;;;;5025966;28;20420;-85
2022/05/18 10:59:21;;;;;;;;;;;19.30;85.80;;;;;;5021497;28;19905;-88
2022/05/18 11:01:54;;;;;;;;;;;19.30;85.80;;;;;;5029044;28;19916;-87
2022/05/18 11:04:29;;;;;;;;;;;19.30;85.80;;;;;;5038994;28;19905;-87
2022/05/18 11:06:54;;;;;;;;;;;19.30;86.40;;;;;;5027321;28;19913;-87
2022/05/18 11:09:22;;;;;;;;;;;19.30;85.90;;;;;;5021050;28;20286;-86
2022/05/18 11:11:55;;;;;;;;;;;19.30;85.90;;;;;;5028665;28;19912;-86
2022/05/18 11:14:40;;;;;;;;;;;19.30;86.00;;;;;;5029647;28;19916;-86
2022/05/18 11:17:27;;;;;;;;;;;19.20;85.80;;;;;;5004128;28;20371;-87
2022/05/18 11:19:58;;;;;;;;;;;19.20;85.50;;;;;;5001340;28;19944;-88
2022/05/18 11:22:28;;;;;;;;;;;19.20;85.50;;;;;;5001173;28;20008;-88
2022/05/18 11:25:13;;;;;;;;;;;19.20;85.60;;;;;;5018623;28;19909;-88
2022/05/18 11:27:44;;;;;;;;;;;19.20;85.40;;;;;;5037380;28;20010;-88
2022/05/18 11:30:22;;;;;;;;;;;19.30;85.50;;;;;;5019607;28;19912;-87
2022/05/18 11:33:01;;;;;;;;;;;19.30;85.00;;;;;;5037257;28;19959;-88
2022/05/18 11:35:29;;;;;;;;;;;19.40;84.80;;;;;;5018513;28;19948;-88
2022/05/18 11:38:00;;;;;;;;;;;19.40;84.70;;;;;;5037181;28;19909;-88
2022/05/18 11:40:29;;;;;;;;;;;19.40;84.70;;;;;;5018729;28;19905;-88
2022/05/18 11:43:28;;;;;;;;;;;19.40;84.70;;;;;;5018604;28;19912;-88
2022/05/18 11:45:53;;;;;;;;;;;19.30;85.00;;;;;;5036096;28;19912;-87
2022/05/18 11:48:27;;;;;;;;;;;19.30;85.30;;;;;;5018583;28;19927;-87
2022/05/18 11:51:10;;;;;;;;;;;19.20;85.60;;;;;;5036523;28;20409;-88
2022/05/18 11:53:43;;;;;;;;;;;19.20;85.70;;;;;;5017979;28;19905;-87
2022/05/18 11:56:08;;;;;;;;;;;19.20;86.00;;;;;;5035307;28;19905;-88
2022/05/18 11:58:50;;;;;;;;;;;19.20;86.20;;;;;;5017907;28;20321;-87
2022/05/18 12:01:38;;;;;;;;;;;19.20;86.20;;;;;;5017759;28;19912;-87
2022/05/18 12:04:08;;;;;;;;;;;19.20;86.30;;;;;;5017604;28;19909;-87
2022/05/18 12:06:40;;;;;;;;;;;19.20;86.30;;;;;;5018992;28;20457;-84
2022/05/18 12:09:08;;;;;;;;;;;19.20;86.40;;;;;;5019567;28;19923;-87
2022/05/18 12:11:34;;;;;;;;;;;19.10;86.30;;;;;;5017604;28;19905;-87
2022/05/18 12:14:07;;;;;;;;;;;19.20;86.30;;;;;;5017038;28;19955;-88
2022/05/18 12:16:47;;;;;;;;;;;19.10;86.30;;;;;;5034038;28;19971;-87
2022/05/18 12:19:21;;;;;;;;;;;19.10;86.40;;;;;;5020046;28;19920;-87
2022/05/18 12:21:50;;;;;;;;;;;19.20;86.50;;;;;;5029666;28;20524;-87
2022/05/18 12:24:16;;;;;;;;;;;19.20;86.40;;;;;;5032672;28;19916;-88
2022/05/18 12:26:42;;;;;;;;;;;19.20;86.20;;;;;;5057408;28;19909;-88
2022/05/18 12:29:08;;;;;;;;;;;19.20;86.00;;;;;;5043877;28;19959;-88
2022/05/18 12:31:34;;;;;;;;;;;19.20;85.90;;;;;;5019845;28;19905;-87
2022/05/18 12:34:26;;;;;;;;;;;19.20;85.80;;;;;;5019956;28;20358;-87
2022/05/18 12:36:57;;;;;;;;;;;19.30;85.90;;;;;;5019381;28;19904;-86
2022/05/18 12:39:22;;;;;;;;;;;19.20;85.80;;;;;;5018921;28;19982;-87
2022/05/18 12:41:52;;;;;;;;;;;19.20;85.80;;;;;;5018718;28;20373;-87
2022/05/18 12:44:25;;;;;;;;;;;19.20;86.00;;;;;;5018838;28;19909;-87
2022/05/18 12:46:53;;;;;;;;;;;19.20;86.20;;;;;;5018789;28;19931;-87
2022/05/18 12:49:37;;;;;;;;;;;19.20;86.50;;;;;;5018616;28;19905;-88
2022/05/18 12:52:12;;;;;;;;;;;19.20;86.70;;;;;;5036408;28;20434;-88
2022/05/18 12:54:42;;;;;;;;;;;19.10;86.70;;;;;;5017962;28;20046;-88
2022/05/18 12:57:08;;;;;;;;;;;19.10;86.80;;;;;;5014418;28;20350;-87
2022/05/18 12:59:52;;;;;;;;;;;19.10;86.90;;;;;;5008094;28;19920;-88
2022/05/18 13:02:33;;;;;;;;;;;19.10;86.90;;;;;;4998695;28;19912;-87
2022/05/18 13:04:59;;;;;;;;;;;19.10;87.00;;;;;;4998101;28;20323;-87
2022/05/18 13:07:27;;;;;;;;;;;19.10;87.00;;;;;;4999149;28;19905;-88
2022/05/18 13:10:03;;;;;;;;;;;19.10;87.00;;;;;;5002004;28;19916;-88
2022/05/18 13:12:35;;;;;;;;;;;19.00;87.00;;;;;;5002559;28;19906;-88
2022/05/18 13:15:03;;;;;;;;;;;19.00;87.00;;;;;;5018978;28;19905;-88
2022/05/18 13:17:41;;;;;;;;;;;19.10;87.10;;;;;;5000752;28;19913;-88
2022/05/18 13:20:27;;;;;;;;;;;19.10;87.10;;;;;;5016711;28;19906;-88
2022/05/18 13:23:00;;;;;;;;;;;19.10;87.10;;;;;;5001088;28;20526;-88
2022/05/18 13:25:27;;;;;;;;;;;19.10;86.90;;;;;;5012650;28;20505;-88
2022/05/18 13:27:53;;;;;;;;;;;19.20;86.80;;;;;;5020309;28;19909;-88
2022/05/18 13:30:23;;;;;;;;;;;19.20;86.60;;;;;;5020087;28;19905;-86
2022/05/18 13:32:49;;;;;;;;;;;19.20;86.50;;;;;;5020619;28;19905;-86
2022/05/18 13:35:19;;;;;;;;;;;19.20;86.40;;;;;;5020421;28;19911;-84
2022/05/18 13:37:50;;;;;;;;;;;19.20;86.40;;;;;;5041420;28;19944;-86
2022/05/18 13:40:15;;;;;;;;;;;19.10;86.40;;;;;;5038562;28;19912;-85
2022/05/18 13:42:41;;;;;;;;;;;19.10;86.70;;;;;;5020431;28;19905;-82
2022/05/18 13:45:11;;;;;;;;;;;19.10;86.80;;;;;;5038342;28;20274;-86
2022/05/18 13:47:36;;;;;;;;;;;19.10;86.90;;;;;;5020224;28;19905;-83
2022/05/18 13:50:14;;;;;;;;;;;19.00;87.10;;;;;;5035965;28;19920;-85
2022/05/18 13:52:42;;;;;;;;;;;19.00;87.20;;;;;;5038197;28;20376;-84
2022/05/18 13:55:10;;;;;;;;;;;19.00;87.30;;;;;;5038223;28;19905;-84
2022/05/18 13:57:41;;;;;;;;;;;19.00;87.30;;;;;;5019877;28;20428;-85
2022/05/18 14:00:14;;;;;;;;;;;19.00;87.40;;;;;;5019790;28;19909;-86
2022/05/18 14:02:40;;;;;;;;;;;19.00;87.40;;;;;;5037722;28;20349;-84
2022/05/18 14:05:10;;;;;;;;;;;19.00;87.90;;;;;;5019211;28;19941;-84
2022/05/18 14:07:37;;;;;;;;;;;19.00;87.50;;;;;;5019492;28;19905;-85
2022/05/18 14:10:05;;;;;;;;;;;19.00;87.50;;;;;;5019311;28;19908;-85
2022/05/18 14:12:30;;;;;;;;;;;19.00;87.50;;;;;;5020571;28;19905;-84
2022/05/18 14:14:56;;;;;;;;;;;19.00;87.50;;;;;;5019413;28;19959;-84
2022/05/18 14:17:27;;;;;;;;;;;19.00;87.60;;;;;;5047826;28;19921;-85
2022/05/18 14:19:56;;;;;;;;;;;19.00;87.50;;;;;;5019956;28;19913;-85
2022/05/18 14:22:29;;;;;;;;;;;19.00;87.40;;;;;;5028970;28;19913;-84
2022/05/18 14:25:04;;;;;;;;;;;19.00;87.20;;;;;;5031401;28;19912;-83
2022/05/18 14:27:41;;;;;;;;;;;19.10;87.10;;;;;;5020453;28;19909;-84
2022/05/18 14:30:10;;;;;;;;;;;19.10;87.00;;;;;;5023891;28;20001;-84
2022/05/18 14:32:41;;;;;;;;;;;19.10;86.90;;;;;;5040757;28;19920;-84
2022/05/18 14:35:07;;;;;;;;;;;19.10;86.90;;;;;;5034849;28;19909;-83
2022/05/18 14:37:44;;;;;;;;;;;19.10;87.00;;;;;;5036238;28;19916;-83
2022/05/18 14:40:11;;;;;;;;;;;19.00;87.10;;;;;;4998838;28;20374;-83
2022/05/18 14:42:45;;;;;;;;;;;19.00;87.20;;;;;;5025351;28;19905;-82
2022/05/18 14:45:22;;;;;;;;;;;18.90;87.30;;;;;;5031212;28;19939;-82